createdAt,value
2023-02-13T00:00:18.474Z,103058.75
2023-02-13T00:02:45.273Z,103052.59
2023-02-13T00:05:11.771Z,103057.97
2023-02-13T00:07:38.242Z,103051.75
2023-02-13T00:10:05.257Z,103049.91
2023-02-13T00:12:31.698Z,103053.56
2023-02-13T00:14:59.074Z,103052.69
2023-02-13T00:17:26.442Z,103049.16
2023-02-13T00:19:52.782Z,103049.16
2023-02-13T00:22:19.141Z,103045.63
2023-02-13T00:24:46.464Z,103052.69
2023-02-13T00:27:12.933Z,103052.69
2023-02-13T00:29:39.458Z,103053.56
2023-02-13T00:32:05.969Z,103049.06
2023-02-13T00:34:32.417Z,103046.38
2023-02-13T00:36:58.865Z,103041.84
2023-02-13T00:39:25.295Z,103037.41
2023-02-13T00:41:51.632Z,103041.00
2023-02-13T00:44:18.054Z,103045.50
2023-02-13T00:46:44.458Z,103035.72
2023-02-13T00:49:10.877Z,103030.44
2023-02-13T00:51:37.270Z,103039.38
2023-02-13T00:54:03.780Z,103032.25
2023-02-13T00:56:30.140Z,103043.88
2023-02-13T00:58:56.473Z,103034.94
2023-02-13T01:01:22.903Z,103043.00
2023-02-13T01:03:49.384Z,103044.00
2023-02-13T01:06:15.842Z,103051.22
2023-02-13T01:08:42.627Z,103050.31
2023-02-13T01:11:09.322Z,103044.94
2023-02-13T01:13:36.293Z,103047.63
2023-02-13T01:16:02.719Z,103046.78
2023-02-13T01:18:29.460Z,103045.06
2023-02-13T01:21:01.477Z,103045.94
2023-02-13T01:23:37.982Z,103039.69
2023-02-13T01:26:05.943Z,103038.84
2023-02-13T01:28:32.716Z,103036.25
2023-02-13T01:31:00.257Z,103039.91
2023-02-13T01:33:28.317Z,103033.66
2023-02-13T01:35:54.713Z,103029.25
2023-02-13T01:38:21.582Z,103032.91
2023-02-13T01:40:49.390Z,103031.19
2023-02-13T01:43:15.968Z,103024.09
2023-02-13T01:45:45.844Z,103025.81
2023-02-13T01:48:21.122Z,103024.94
2023-02-13T01:50:52.931Z,103021.41
2023-02-13T01:53:27.805Z,103020.56
2023-02-13T01:56:13.375Z,103021.41
2023-02-13T01:58:43.155Z,103022.38
2023-02-13T02:01:10.628Z,103018.94
2023-02-13T02:03:59.675Z,103015.47
2023-02-13T02:06:57.166Z,103008.41
2023-02-13T02:09:27.546Z,103013.88
2023-02-13T02:12:01.518Z,103010.31
2023-02-13T02:14:28.229Z,103000.88
2023-02-13T02:16:54.614Z,103002.66
2023-02-13T02:19:27.367Z,103004.50
2023-02-13T02:22:16.345Z,103008.16
2023-02-13T02:25:00.845Z,103018.16
2023-02-13T02:28:05.844Z,103013.84
2023-02-13T02:31:08.578Z,103015.69
2023-02-13T02:33:56.243Z,103015.69
2023-02-13T02:36:46.748Z,103013.09
2023-02-13T02:39:31.816Z,103011.38
2023-02-13T02:42:18.507Z,103011.38
2023-02-13T02:45:10.221Z,102999.88
2023-02-13T02:48:19.483Z,102995.47
2023-02-13T02:51:03.089Z,102998.16
2023-02-13T02:53:35.313Z,102988.47
2023-02-13T02:56:12.699Z,102990.31
2023-02-13T02:59:06.783Z,102988.56
2023-02-13T03:01:53.086Z,102992.34
2023-02-13T03:04:41.318Z,102989.56
2023-02-13T03:07:10.556Z,102978.03
2023-02-13T03:09:59.946Z,102991.56
2023-02-13T03:12:52.291Z,102988.25
2023-02-13T03:15:19.201Z,102987.47
2023-02-13T03:18:03.942Z,102984.91
2023-02-13T03:21:12.032Z,102989.44
2023-02-13T03:23:55.103Z,102993.94
2023-02-13T03:26:46.084Z,102983.31
2023-02-13T03:29:37.108Z,102984.25
2023-02-13T03:32:26.260Z,102984.25
2023-02-13T03:35:23.227Z,102982.53
2023-02-13T03:37:56.013Z,102990.59
2023-02-13T03:40:38.084Z,102990.59
2023-02-13T03:43:14.309Z,102995.88
2023-02-13T03:45:57.214Z,102993.06
2023-02-13T03:48:52.203Z,103000.19
2023-02-13T03:51:30.927Z,102995.53
2023-02-13T03:54:01.867Z,102992.13
2023-02-13T03:56:50.263Z,102990.16
2023-02-13T03:59:22.453Z,102992.84
2023-02-13T04:02:07.866Z,102985.78
2023-02-13T04:04:49.804Z,102982.09
2023-02-13T04:07:32.813Z,102986.63
2023-02-13T04:10:07.221Z,102989.44
2023-02-13T04:12:41.774Z,102981.38
2023-02-13T04:15:27.343Z,102985.00
2023-02-13T04:18:05.473Z,102987.59
2023-02-13T04:20:32.716Z,102983.31
2023-02-13T04:23:05.062Z,102991.34
2023-02-13T04:25:31.533Z,102989.63
2023-02-13T04:27:57.857Z,102985.13
2023-02-13T04:30:24.345Z,102988.78
2023-02-13T04:32:52.737Z,102978.88
2023-02-13T04:35:19.076Z,102985.22
2023-02-13T04:37:45.423Z,102987.91
2023-02-13T04:40:12.057Z,102984.38
2023-02-13T04:42:39.284Z,102986.19
2023-02-13T04:45:05.830Z,102988.13
2023-02-13T04:47:32.930Z,102988.22
2023-02-13T04:49:59.309Z,102988.22
2023-02-13T04:52:25.621Z,102986.50
2023-02-13T04:54:51.987Z,102981.22
2023-02-13T04:57:18.306Z,102986.59
2023-02-13T04:59:44.669Z,102982.97
2023-02-13T05:02:10.989Z,102989.19
2023-02-13T05:04:37.351Z,102984.75
2023-02-13T05:07:03.782Z,102989.06
2023-02-13T05:09:30.118Z,102978.44
2023-02-13T05:11:56.488Z,102974.91
2023-02-13T05:14:22.869Z,102976.63
2023-02-13T05:16:49.714Z,102982.97
2023-02-13T05:19:16.891Z,102979.41
2023-02-13T05:22:02.291Z,102978.53
2023-02-13T05:24:28.601Z,102985.75
2023-02-13T05:26:55.039Z,102979.53
2023-02-13T05:29:22.946Z,102988.56
2023-02-13T05:31:54.357Z,102994.78
2023-02-13T05:34:22.191Z,102985.19
2023-02-13T05:36:48.846Z,102987.88
2023-02-13T05:39:15.346Z,102991.53
2023-02-13T05:41:46.054Z,102984.34
2023-02-13T05:44:13.520Z,102991.63
2023-02-13T05:46:41.689Z,102980.03
2023-02-13T05:49:09.905Z,102981.88
2023-02-13T05:51:36.843Z,102981.88
2023-02-13T05:54:03.649Z,102985.50
2023-02-13T05:56:30.422Z,102992.59
2023-02-13T05:58:57.478Z,102991.75
2023-02-13T06:01:24.941Z,102986.38
2023-02-13T06:03:51.473Z,102989.81
2023-02-13T06:06:18.166Z,103000.53
2023-02-13T06:08:44.609Z,102998.84
2023-02-13T06:11:11.250Z,103005.06
2023-02-13T06:13:40.528Z,103005.19
2023-02-13T06:16:08.299Z,103003.34
2023-02-13T06:18:35.372Z,103008.72
2023-02-13T06:21:02.210Z,103002.50
2023-02-13T06:23:29.188Z,103004.28
2023-02-13T06:25:55.601Z,103000.75
2023-02-13T06:28:21.996Z,103007.09
2023-02-13T06:30:49.081Z,103002.69
2023-02-13T06:33:15.431Z,103011.63
2023-02-13T06:35:41.780Z,103008.03
2023-02-13T06:38:08.131Z,103009.88
2023-02-13T06:40:34.442Z,103003.56
2023-02-13T06:43:00.843Z,103013.41
2023-02-13T06:45:27.296Z,103017.00
2023-02-13T06:47:54.144Z,103023.31
2023-02-13T06:50:20.577Z,103016.22
2023-02-13T06:52:51.833Z,103024.16
2023-02-13T06:55:19.286Z,103025.13
2023-02-13T06:57:45.769Z,103023.31
2023-02-13T07:00:14.103Z,103025.03
2023-02-13T07:02:42.001Z,103025.78
2023-02-13T07:05:09.219Z,103028.38
2023-02-13T07:07:37.364Z,103021.16
2023-02-13T07:10:05.778Z,103028.28
2023-02-13T07:12:36.609Z,103035.38
2023-02-13T07:15:08.095Z,103020.97
2023-02-13T07:17:34.598Z,103039.66
2023-02-13T07:20:01.023Z,103038.81
2023-02-13T07:22:27.564Z,103044.06
2023-02-13T07:24:53.983Z,103052.03
2023-02-13T07:27:20.330Z,103043.97
2023-02-13T07:29:49.921Z,103047.44
2023-02-13T07:32:16.306Z,103044.75
2023-02-13T07:35:00.620Z,103045.47
2023-02-13T07:37:29.490Z,103045.47
2023-02-13T07:39:55.853Z,103049.91
2023-02-13T07:42:22.368Z,103048.94
2023-02-13T07:44:48.833Z,103048.94
2023-02-13T07:47:15.344Z,103052.38
2023-02-13T07:49:41.886Z,103055.84
2023-02-13T07:52:08.316Z,103058.53
2023-02-13T07:54:34.669Z,103055.63
2023-02-13T07:57:01.078Z,103062.69
2023-02-13T07:59:27.548Z,103051.78
2023-02-13T08:01:54.002Z,103049.94
2023-02-13T08:04:20.499Z,103051.66
2023-02-13T08:06:46.844Z,103056.81
2023-02-13T08:09:40.783Z,103055.66
2023-02-13T08:12:09.188Z,103052.84
2023-02-13T08:14:35.579Z,103050.94
2023-02-13T08:17:02.129Z,103049.84
2023-02-13T08:19:28.530Z,103047.94
2023-02-13T08:21:55.032Z,103047.84
2023-02-13T08:24:21.751Z,103044.94
2023-02-13T08:26:48.207Z,103048.34
2023-02-13T08:29:14.569Z,103041.06
2023-02-13T08:31:41.220Z,103052.47
2023-02-13T08:34:07.615Z,103046.03
2023-02-13T08:36:33.934Z,103050.34
2023-02-13T08:39:00.680Z,103048.38
2023-02-13T08:41:27.106Z,103052.69
2023-02-13T08:43:54.342Z,103055.16
2023-02-13T08:46:20.940Z,103053.22
2023-02-13T08:48:47.339Z,103045.94
2023-02-13T08:51:14.238Z,103045.84
2023-02-13T08:53:42.347Z,103055.50
2023-02-13T08:56:09.600Z,103059.91
2023-02-13T08:58:36.144Z,103057.84
2023-02-13T09:01:07.229Z,103061.22
2023-02-13T09:03:34.170Z,103065.53
2023-02-13T09:06:02.215Z,103063.56
2023-02-13T09:08:28.660Z,103065.13
2023-02-13T09:10:58.087Z,103072.97
2023-02-13T09:13:24.623Z,103055.75
2023-02-13T09:15:50.977Z,103055.53
2023-02-13T09:18:17.347Z,103059.72
2023-02-13T09:20:43.781Z,103054.88
2023-02-13T09:23:10.172Z,103059.06
2023-02-13T09:25:36.754Z,103064.13
2023-02-13T09:28:03.160Z,103054.97
2023-02-13T09:30:29.554Z,103060.97
2023-02-13T09:32:56.012Z,103048.28
2023-02-13T09:35:23.183Z,103057.88
2023-02-13T09:37:49.531Z,103058.50
2023-02-13T09:40:25.560Z,103061.63
2023-02-13T09:42:53.149Z,103058.56
2023-02-13T09:45:21.943Z,103057.16
2023-02-13T09:47:50.110Z,103051.31
2023-02-13T09:50:23.875Z,103056.28
2023-02-13T09:52:52.830Z,103057.44
2023-02-13T09:55:24.644Z,103052.31
2023-02-13T09:58:03.076Z,103058.13
2023-02-13T10:00:50.933Z,103059.38
2023-02-13T10:03:37.625Z,103067.78
2023-02-13T10:06:26.029Z,103058.59
2023-02-13T10:09:01.118Z,103068.06
2023-02-13T10:11:38.436Z,103067.81
2023-02-13T10:14:19.608Z,103075.44
2023-02-13T10:17:01.306Z,103075.94
2023-02-13T10:19:45.799Z,103071.94
2023-02-13T10:22:16.745Z,103069.66
2023-02-13T10:24:50.573Z,103075.56
2023-02-13T10:27:23.878Z,103071.63
2023-02-13T10:30:06.965Z,103074.84
2023-02-13T10:32:45.435Z,103070.94
2023-02-13T10:35:38.374Z,103074.25
2023-02-13T10:38:17.624Z,103065.91
2023-02-13T10:41:04.995Z,103063.97
2023-02-13T10:43:59.619Z,103055.78
2023-02-13T10:46:59.817Z,103066.41
2023-02-13T10:50:04.011Z,103071.72
2023-02-13T10:52:57.150Z,103064.38
2023-02-13T10:55:23.635Z,103062.63
2023-02-13T10:58:09.705Z,103063.28
2023-02-13T11:00:48.906Z,103054.19
2023-02-13T11:03:22.305Z,103058.47
2023-02-13T11:05:49.888Z,103048.44
2023-02-13T11:08:20.191Z,103055.28
2023-02-13T11:10:47.103Z,103059.47
2023-02-13T11:13:25.038Z,103054.59
2023-02-13T11:16:01.992Z,103042.44
2023-02-13T11:18:32.015Z,103040.47
2023-02-13T11:21:21.917Z,103031.03
2023-02-13T11:23:57.313Z,103028.81
2023-02-13T11:26:36.460Z,103029.44
2023-02-13T11:29:18.284Z,103027.22
2023-02-13T11:31:44.752Z,103025.13
2023-02-13T11:34:29.582Z,103034.44
2023-02-13T11:37:14.165Z,103024.13
2023-02-13T11:39:42.647Z,103015.78
2023-02-13T11:42:32.354Z,103017.00
2023-02-13T11:45:02.667Z,103016.75
2023-02-13T11:47:42.589Z,103011.09
2023-02-13T11:50:29.594Z,103014.53
2023-02-13T11:52:59.955Z,103010.81
2023-02-13T11:55:28.321Z,103011.59
2023-02-13T11:58:03.773Z,103006.09
2023-02-13T12:00:40.019Z,103007.69
2023-02-13T12:03:22.475Z,102995.88
2023-02-13T12:06:00.419Z,102993.16
2023-02-13T12:08:27.923Z,102983.63
2023-02-13T12:10:56.681Z,102989.22
2023-02-13T12:13:32.771Z,102984.69
2023-02-13T12:16:05.318Z,102979.31
2023-02-13T12:18:39.729Z,102977.34
2023-02-13T12:21:24.493Z,102987.03
2023-02-13T12:24:03.069Z,102986.91
2023-02-13T12:26:38.571Z,102982.50
2023-02-13T12:29:29.251Z,102982.63
2023-02-13T12:32:02.819Z,102977.34
2023-02-13T12:34:57.938Z,102968.59
2023-02-13T12:37:44.426Z,102961.63
2023-02-13T12:40:28.598Z,102962.72
2023-02-13T12:43:23.768Z,102960.28
2023-02-13T12:46:06.559Z,102957.69
2023-02-13T12:48:32.911Z,102947.31
2023-02-13T12:51:24.720Z,102947.53
2023-02-13T12:54:07.940Z,102944.13
2023-02-13T12:56:49.744Z,102944.50
2023-02-13T12:59:45.579Z,102938.34
2023-02-13T13:02:57.090Z,102938.50
2023-02-13T13:05:30.189Z,102929.66
2023-02-13T13:08:36.832Z,102927.94
2023-02-13T13:11:29.155Z,102933.34
2023-02-13T13:14:00.891Z,102935.19
2023-02-13T13:16:45.292Z,102936.03
2023-02-13T13:19:40.462Z,102928.94
2023-02-13T13:22:19.743Z,102931.63
2023-02-13T13:24:48.843Z,102923.53
2023-02-13T13:27:23.575Z,102918.13
2023-02-13T13:29:59.176Z,102914.44
2023-02-13T13:32:27.342Z,102904.53
2023-02-13T13:34:54.840Z,102899.97
2023-02-13T13:37:26.798Z,102898.97
2023-02-13T13:40:16.359Z,102894.44
2023-02-13T13:42:54.586Z,102898.13
2023-02-13T13:45:35.590Z,102891.72
2023-02-13T13:48:21.551Z,102897.13
2023-02-13T13:50:49.014Z,102898.25
2023-02-13T13:53:20.817Z,102895.69
2023-02-13T13:55:47.410Z,102893.09
2023-02-13T13:58:32.991Z,102895.78
2023-02-13T14:01:14.650Z,102897.66
2023-02-13T14:03:46.033Z,102896.78
2023-02-13T14:06:49.228Z,102899.34
2023-02-13T14:09:27.695Z,102893.84
2023-02-13T14:11:56.485Z,102885.72
2023-02-13T14:14:42.806Z,102889.19
2023-02-13T14:17:14.393Z,102888.19
2023-02-13T14:19:51.814Z,102881.19
2023-02-13T14:22:36.145Z,102879.34
2023-02-13T14:25:06.482Z,102878.63
2023-02-13T14:27:38.558Z,102875.06
2023-02-13T14:30:24.545Z,102881.56
2023-02-13T14:32:51.295Z,102882.56
2023-02-13T14:35:30.187Z,102878.16
2023-02-13T14:37:59.399Z,102876.41
2023-02-13T14:40:43.152Z,102874.56
2023-02-13T14:43:33.782Z,102878.28
2023-02-13T14:46:06.217Z,102871.16
2023-02-13T14:48:39.542Z,102866.75
2023-02-13T14:51:07.697Z,102866.16
2023-02-13T14:54:03.621Z,102864.56
2023-02-13T14:56:31.491Z,102863.09
2023-02-13T14:59:32.734Z,102857.09
2023-02-13T15:02:14.019Z,102848.41
2023-02-13T15:04:47.588Z,102857.59
2023-02-13T15:07:19.961Z,102849.88
2023-02-13T15:09:56.342Z,102852.00
2023-02-13T15:12:36.838Z,102854.91
2023-02-13T15:15:23.532Z,102857.16
2023-02-13T15:17:50.485Z,102851.13
2023-02-13T15:20:24.898Z,102855.94
2023-02-13T15:22:52.668Z,102853.59
2023-02-13T15:25:40.201Z,102851.00
2023-02-13T15:28:16.155Z,102844.16
2023-02-13T15:30:52.792Z,102849.56
2023-02-13T15:33:22.348Z,102848.97
2023-02-13T15:36:03.733Z,102848.59
2023-02-13T15:38:36.405Z,102844.41
2023-02-13T15:41:05.207Z,102848.47
2023-02-13T15:43:38.339Z,102844.16
2023-02-13T15:46:17.310Z,102845.41
2023-02-13T15:48:45.165Z,102842.19
2023-02-13T15:51:19.781Z,102844.88
2023-02-13T15:54:00.764Z,102841.69
2023-02-13T15:56:28.016Z,102843.91
2023-02-13T15:58:55.904Z,102829.94
2023-02-13T16:01:23.141Z,102832.00
2023-02-13T16:03:54.097Z,102830.53
2023-02-13T16:06:23.574Z,102832.63
2023-02-13T16:08:58.321Z,102833.81
2023-02-13T16:11:31.492Z,102837.75
2023-02-13T16:14:06.133Z,102838.22
2023-02-13T16:17:00.719Z,102832.31
2023-02-13T16:19:50.439Z,102832.69
2023-02-13T16:22:38.600Z,102832.31
2023-02-13T16:25:16.972Z,102839.03
2023-02-13T16:27:46.875Z,102847.44
2023-02-13T16:30:28.144Z,102833.63
2023-02-13T16:33:14.712Z,102835.16
2023-02-13T16:35:43.895Z,102836.47
2023-02-13T16:38:28.419Z,102833.41
2023-02-13T16:40:57.374Z,102829.47
2023-02-13T16:43:42.468Z,102822.81
2023-02-13T16:46:17.675Z,102823.28
2023-02-13T16:48:46.209Z,102820.31
2023-02-13T16:51:13.166Z,102820.88
2023-02-13T16:53:40.539Z,102828.50
2023-02-13T16:56:08.949Z,102832.63
2023-02-13T16:58:35.689Z,102833.19
2023-02-13T17:01:04.917Z,102830.09
2023-02-13T17:03:34.340Z,102833.31
2023-02-13T17:06:03.957Z,102839.25
2023-02-13T17:08:31.788Z,102851.53
2023-02-13T17:11:04.679Z,102848.53
2023-02-13T17:13:31.310Z,102851.84
2023-02-13T17:15:59.273Z,102855.13
2023-02-13T17:18:26.936Z,102857.47
2023-02-13T17:20:54.134Z,102858.88
2023-02-13T17:23:23.906Z,102863.69
2023-02-13T17:25:52.606Z,102864.09
2023-02-13T17:28:25.033Z,102868.97
2023-02-13T17:30:53.973Z,102864.00
2023-02-13T17:33:25.491Z,102859.81
2023-02-13T17:35:53.169Z,102870.00
2023-02-13T17:38:19.619Z,102873.00
2023-02-13T17:40:46.322Z,102873.31
2023-02-13T17:43:14.672Z,102877.19
2023-02-13T17:45:41.480Z,102868.56
2023-02-13T17:48:08.410Z,102867.16
2023-02-13T17:50:35.404Z,102870.16
2023-02-13T17:53:04.157Z,102876.66
2023-02-13T17:55:32.497Z,102874.19
2023-02-13T17:57:59.913Z,102882.50
2023-02-13T18:00:32.684Z,102876.50
2023-02-13T18:03:00.383Z,102881.31
2023-02-13T18:05:27.794Z,102875.38
2023-02-13T18:07:54.501Z,102872.91
2023-02-13T18:10:24.047Z,102876.66
2023-02-13T18:12:51.468Z,102876.94
2023-02-13T18:15:18.858Z,102882.50
2023-02-13T18:17:46.179Z,102871.13
2023-02-13T18:20:15.084Z,102873.91
2023-02-13T18:22:41.764Z,102871.44
2023-02-13T18:25:08.716Z,102877.00
2023-02-13T18:27:35.234Z,102870.00
2023-02-13T18:30:02.234Z,102863.97
2023-02-13T18:32:28.778Z,102868.59
2023-02-13T18:34:55.243Z,102864.38
2023-02-13T18:37:21.634Z,102864.56
2023-02-13T18:39:47.943Z,102861.31
2023-02-13T18:42:14.369Z,102863.34
2023-02-13T18:44:41.271Z,102869.84
2023-02-13T18:47:07.924Z,102861.16
2023-02-13T18:49:34.285Z,102862.28
2023-02-13T18:52:01.559Z,102863.47
2023-02-13T18:54:28.334Z,102858.38
2023-02-13T18:56:54.665Z,102852.34
2023-02-13T18:59:22.800Z,102852.53
2023-02-13T19:01:49.897Z,102853.72
2023-02-13T19:04:16.394Z,102850.34
2023-02-13T19:06:43.786Z,102859.53
2023-02-13T19:09:10.761Z,102853.50
2023-02-13T19:11:38.680Z,102854.66
2023-02-13T19:14:06.178Z,102854.09
2023-02-13T19:16:34.662Z,102852.53
2023-02-13T19:19:04.198Z,102861.72
2023-02-13T19:21:32.999Z,102859.44
2023-02-13T19:23:59.399Z,102855.22
2023-02-13T19:26:26.996Z,102866.19
2023-02-13T19:28:53.895Z,102858.53
2023-02-13T19:31:23.487Z,102857.00
2023-02-13T19:33:50.944Z,102860.91
2023-02-13T19:36:23.114Z,102865.66
2023-02-13T19:38:54.477Z,102872.19
2023-02-13T19:41:21.001Z,102860.88
2023-02-13T19:43:50.866Z,102861.22
2023-02-13T19:46:22.928Z,102859.69
2023-02-13T19:48:50.374Z,102859.09
2023-02-13T19:51:19.675Z,102869.03
2023-02-13T19:53:46.236Z,102856.78
2023-02-13T19:56:13.569Z,102856.06
2023-02-13T19:58:41.258Z,102855.28
2023-02-13T20:01:09.847Z,102858.16
2023-02-13T20:03:36.565Z,102852.13
2023-02-13T20:06:08.138Z,102850.56
2023-02-13T20:08:34.744Z,102849.03
2023-02-13T20:11:01.407Z,102852.81
2023-02-13T20:13:28.440Z,102847.66
2023-02-13T20:15:55.224Z,102853.19
2023-02-13T20:18:22.114Z,102851.56
2023-02-13T20:20:48.480Z,102848.22
2023-02-13T20:23:16.955Z,102860.78
2023-02-13T20:25:43.345Z,102843.19
2023-02-13T20:28:11.416Z,102848.81
2023-02-13T20:30:42.111Z,102841.91
2023-02-13T20:33:08.656Z,102849.25
2023-02-13T20:35:35.168Z,102853.03
2023-02-13T20:38:01.630Z,102850.53
2023-02-13T20:40:27.995Z,102850.78
2023-02-13T20:42:54.384Z,102850.09
2023-02-13T20:45:21.048Z,102855.63
2023-02-13T20:47:47.566Z,102848.81
2023-02-13T20:50:14.082Z,102853.44
2023-02-13T20:52:40.536Z,102849.31
2023-02-13T20:55:07.626Z,102849.47
2023-02-13T20:57:35.013Z,102846.19
2023-02-13T21:00:01.840Z,102841.03
2023-02-13T21:02:28.227Z,102842.06
2023-02-13T21:04:54.596Z,102844.00
2023-02-13T21:07:22.250Z,102841.53
2023-02-13T21:09:48.651Z,102842.53
2023-02-13T21:12:15.069Z,102842.72
2023-02-13T21:14:41.456Z,102841.19
2023-02-13T21:17:09.492Z,102837.78
2023-02-13T21:19:36.210Z,102843.28
2023-02-13T21:22:11.947Z,102847.00
2023-02-13T21:24:38.934Z,102841.66
2023-02-13T21:27:05.408Z,102847.16
2023-02-13T21:29:31.822Z,102841.19
2023-02-13T21:31:58.181Z,102845.84
2023-02-13T21:34:24.639Z,102846.94
2023-02-13T21:36:51.106Z,102846.25
2023-02-13T21:39:17.516Z,102846.38
2023-02-13T21:41:45.512Z,102844.78
2023-02-13T21:44:15.830Z,102843.13
2023-02-13T21:46:43.664Z,102845.94
2023-02-13T21:49:16.377Z,102844.28
2023-02-13T21:51:43.011Z,102843.59
2023-02-13T21:54:10.188Z,102846.41
2023-02-13T21:56:39.534Z,102849.25
2023-02-13T21:59:06.728Z,102844.94
2023-02-13T22:01:35.992Z,102842.44
2023-02-13T22:04:06.060Z,102844.38
2023-02-13T22:06:34.327Z,102841.88
2023-02-13T22:09:05.689Z,102850.97
2023-02-13T22:11:32.582Z,102852.00
2023-02-13T22:14:04.380Z,102842.34
2023-02-13T22:16:33.704Z,102848.75
2023-02-13T22:19:01.246Z,102844.50
2023-02-13T22:21:29.437Z,102842.97
2023-02-13T22:23:55.940Z,102850.31
2023-02-13T22:26:31.221Z,102851.34
2023-02-13T22:29:06.524Z,102853.31
2023-02-13T22:31:33.634Z,102856.97
2023-02-13T22:34:05.016Z,102852.66
2023-02-13T22:36:33.335Z,102849.22
2023-02-13T22:38:59.826Z,102851.94
2023-02-13T22:41:27.260Z,102852.03
2023-02-13T22:43:54.431Z,102850.38
2023-02-13T22:46:29.891Z,102858.44
2023-02-13T22:48:56.886Z,102856.72
2023-02-13T22:51:34.310Z,102859.53
2023-02-13T22:54:01.699Z,102859.59
2023-02-13T22:56:29.837Z,102862.31
2023-02-13T22:58:57.097Z,102849.16
2023-02-13T23:01:25.793Z,102850.16
2023-02-13T23:03:52.406Z,102851.16
2023-02-13T23:06:19.466Z,102851.25
2023-02-13T23:08:48.916Z,102850.38
2023-02-13T23:11:35.226Z,102839.84
2023-02-13T23:14:01.650Z,102843.47
2023-02-13T23:16:28.797Z,102840.94
2023-02-13T23:18:57.154Z,102837.44
2023-02-13T23:21:26.537Z,102840.16
2023-02-13T23:23:52.922Z,102829.66
2023-02-13T23:26:19.647Z,102838.72
2023-02-13T23:28:45.978Z,102841.47
2023-02-13T23:31:12.395Z,102846.94
2023-02-13T23:33:38.885Z,102837.28
2023-02-13T23:36:05.639Z,102840.03
2023-02-13T23:38:32.018Z,102838.38
2023-02-13T23:41:08.771Z,102837.56
2023-02-13T23:43:35.296Z,102839.47
2023-02-13T23:46:05.865Z,102840.38
2023-02-13T23:48:33.221Z,102837.81
2023-02-13T23:50:59.966Z,102835.22
2023-02-13T23:53:26.666Z,102829.88
2023-02-13T23:55:54.901Z,102829.88
2023-02-13T23:58:21.332Z,102836.91
